createdAt,value
2018-11-04T00:01:56.756Z,24.83
2018-11-04T00:04:25.185Z,24.90
2018-11-04T00:06:53.650Z,25.70
2018-11-04T00:09:22.017Z,26.53
2018-11-04T00:11:50.419Z,25.47
2018-11-04T00:14:18.851Z,25.40
2018-11-04T00:16:47.236Z,25.73
2018-11-04T00:19:15.770Z,25.70
2018-11-04T00:21:44.259Z,24.50
2018-11-04T00:24:12.703Z,24.70
2018-11-04T00:26:41.231Z,22.97
2018-11-04T00:29:09.732Z,24.20
2018-11-04T00:31:38.210Z,23.90
2018-11-04T00:34:06.720Z,24.50
2018-11-04T00:36:35.130Z,24.43
2018-11-04T00:39:05.876Z,23.43
2018-11-04T00:41:34.296Z,23.17
2018-11-04T00:44:02.740Z,22.97
2018-11-04T00:46:31.114Z,22.90
2018-11-04T00:48:59.451Z,23.63
2018-11-04T00:51:27.751Z,23.00
2018-11-04T00:53:56.081Z,24.50
2018-11-04T00:56:24.488Z,24.70
2018-11-04T00:58:52.830Z,23.23
2018-11-04T01:01:21.353Z,22.20
2018-11-04T01:03:49.880Z,22.90
2018-11-04T01:06:18.256Z,23.87
2018-11-04T01:08:46.640Z,23.80
2018-11-04T01:11:15.196Z,23.17
2018-11-04T01:13:43.509Z,21.83
2018-11-04T01:16:11.854Z,23.47
2018-11-04T01:18:40.202Z,23.53
2018-11-04T01:21:08.599Z,23.47
2018-11-04T01:23:37.096Z,23.97
2018-11-04T01:26:05.810Z,23.80
2018-11-04T01:28:34.164Z,23.87
2018-11-04T01:31:02.543Z,24.27
2018-11-04T01:33:30.882Z,24.57
2018-11-04T01:35:59.268Z,24.50
2018-11-04T01:38:27.606Z,24.43
2018-11-04T01:41:01.527Z,24.00
2018-11-04T01:43:29.876Z,23.93
2018-11-04T01:45:58.217Z,24.60
2018-11-04T01:48:26.594Z,25.23
2018-11-04T01:50:55.036Z,24.40
2018-11-04T01:53:23.393Z,25.60
2018-11-04T01:55:51.779Z,24.77
2018-11-04T01:58:20.115Z,23.73
2018-11-04T02:00:48.506Z,24.03
2018-11-04T02:03:23.428Z,22.97
2018-11-04T02:05:51.918Z,24.23
2018-11-04T02:08:20.311Z,23.20
2018-11-04T02:10:48.671Z,23.17
2018-11-04T02:13:17.041Z,23.50
2018-11-04T02:15:45.463Z,23.40
2018-11-04T02:18:13.816Z,22.87
2018-11-04T02:20:42.218Z,22.10
2018-11-04T02:23:10.547Z,22.00
2018-11-04T02:25:38.965Z,20.80
2018-11-04T02:28:07.311Z,22.07
2018-11-04T02:30:35.636Z,20.90
2018-11-04T02:33:03.979Z,20.80
2018-11-04T02:35:32.327Z,20.23
2018-11-04T02:38:00.647Z,21.87
2018-11-04T02:43:21.723Z,20.50
2018-11-04T02:45:50.044Z,20.30
2018-11-04T02:48:18.441Z,20.00
2018-11-04T02:50:46.778Z,20.23
2018-11-04T02:53:15.135Z,20.37
2018-11-04T02:55:43.448Z,20.53
2018-11-04T02:58:11.774Z,18.67
2018-11-04T03:00:40.095Z,19.63
2018-11-04T03:03:08.455Z,19.67
2018-11-04T03:05:36.749Z,20.57
2018-11-04T03:08:05.547Z,19.67
2018-11-04T03:10:33.835Z,20.80
2018-11-04T03:13:02.240Z,18.67
2018-11-04T03:15:30.568Z,19.33
2018-11-04T03:17:59.008Z,18.63
2018-11-04T03:20:27.365Z,19.20
2018-11-04T03:22:55.715Z,18.70
2018-11-04T03:25:24.084Z,18.37
2018-11-04T03:27:52.412Z,18.70
2018-11-04T03:30:20.814Z,19.10
2018-11-04T03:32:49.367Z,18.20
2018-11-04T03:35:17.928Z,16.90
2018-11-04T03:37:46.235Z,17.37
2018-11-04T03:40:14.658Z,17.90
2018-11-04T03:42:43.323Z,18.20
2018-11-04T03:45:12.015Z,17.07
2018-11-04T03:47:40.917Z,18.23
2018-11-04T03:50:11.161Z,17.47
2018-11-04T03:52:39.553Z,16.93
2018-11-04T03:55:11.659Z,17.63
2018-11-04T03:57:40.009Z,17.80
2018-11-04T04:00:10.902Z,16.93
2018-11-04T04:02:39.834Z,17.80
2018-11-04T04:05:09.424Z,16.70
2018-11-04T04:07:38.109Z,17.17
2018-11-04T04:10:07.633Z,17.30
2018-11-04T04:12:36.320Z,16.47
2018-11-04T04:15:05.804Z,16.27
2018-11-04T04:17:34.187Z,16.40
2018-11-04T04:20:02.761Z,17.27
2018-11-04T04:22:31.098Z,18.13
2018-11-04T04:24:59.474Z,17.03
2018-11-04T04:27:27.827Z,17.37
2018-11-04T04:29:56.255Z,16.00
2018-11-04T04:32:24.764Z,17.17
2018-11-04T04:34:53.107Z,17.00
2018-11-04T04:37:21.525Z,17.00
2018-11-04T04:39:49.875Z,17.03
2018-11-04T04:42:18.208Z,16.30
2018-11-04T04:44:47.324Z,16.83
2018-11-04T04:47:15.692Z,16.93
2018-11-04T04:49:44.080Z,17.03
2018-11-04T04:52:12.431Z,16.80
2018-11-04T04:54:40.780Z,16.60
2018-11-04T04:57:09.126Z,18.77
2018-11-04T04:59:37.520Z,16.67
2018-11-04T05:02:06.106Z,16.27
2018-11-04T05:04:34.511Z,17.00
2018-11-04T05:07:02.991Z,17.70
2018-11-04T05:09:31.327Z,17.10
2018-11-04T05:11:59.675Z,17.60
2018-11-04T05:14:28.037Z,17.80
2018-11-04T05:16:56.421Z,17.73
2018-11-04T05:19:24.947Z,17.80
2018-11-04T05:21:53.381Z,17.73
2018-11-04T05:24:21.767Z,18.10
2018-11-04T05:26:50.128Z,18.27
2018-11-04T05:29:18.477Z,17.93
2018-11-04T05:31:46.869Z,18.43
2018-11-04T05:34:15.824Z,19.13
2018-11-04T05:36:51.183Z,17.67
2018-11-04T05:39:19.513Z,19.07
2018-11-04T05:41:47.842Z,18.07
2018-11-04T05:44:16.365Z,18.67
2018-11-04T05:46:44.638Z,19.90
2018-11-04T05:49:12.960Z,19.03
2018-11-04T05:51:41.272Z,18.03
2018-11-04T05:54:09.599Z,16.67
2018-11-04T05:56:37.927Z,18.70
2018-11-04T05:59:06.223Z,18.03
2018-11-04T06:01:34.581Z,19.00
2018-11-04T06:04:02.899Z,18.23
2018-11-04T06:06:31.255Z,19.00
2018-11-04T06:08:59.597Z,19.07
2018-11-04T06:11:27.946Z,20.93
2018-11-04T06:13:57.179Z,18.77
2018-11-04T06:16:25.500Z,19.47
2018-11-04T06:18:53.867Z,20.07
2018-11-04T06:21:22.209Z,19.87
2018-11-04T06:23:50.515Z,18.80
2018-11-04T06:26:18.809Z,19.87
2018-11-04T06:28:47.146Z,19.23
2018-11-04T06:31:15.481Z,18.97
2018-11-04T06:33:43.795Z,18.93
2018-11-04T06:36:12.670Z,18.97
2018-11-04T06:38:40.987Z,18.97
2018-11-04T06:41:09.454Z,18.77
2018-11-04T06:43:37.930Z,18.47
2018-11-04T06:46:06.656Z,19.83
2018-11-04T06:48:35.013Z,19.60
2018-11-04T06:51:03.314Z,19.53
2018-11-04T06:53:31.664Z,19.60
2018-11-04T06:55:59.979Z,19.00
2018-11-04T06:58:28.405Z,19.90
2018-11-04T07:00:56.746Z,21.23
2018-11-04T07:03:25.162Z,19.77
2018-11-04T07:05:53.501Z,20.33
2018-11-04T07:08:21.814Z,19.97
2018-11-04T07:10:50.134Z,19.40
2018-11-04T07:13:18.470Z,19.23
2018-11-04T07:15:46.806Z,19.70
2018-11-04T07:18:15.200Z,19.53
2018-11-04T07:20:43.502Z,19.77
2018-11-04T07:23:11.818Z,19.90
2018-11-04T07:25:40.306Z,20.97
2018-11-04T07:28:08.856Z,19.67
2018-11-04T07:30:37.386Z,20.13
2018-11-04T07:33:05.946Z,19.37
2018-11-04T07:35:34.347Z,19.30
2018-11-04T07:38:02.744Z,19.80
2018-11-04T07:43:25.729Z,19.37
2018-11-04T07:45:54.164Z,19.60
2018-11-04T07:48:22.522Z,20.93
2018-11-04T07:50:50.960Z,21.73
2018-11-04T07:53:19.381Z,20.10
2018-11-04T07:55:47.707Z,19.33
2018-11-04T07:58:16.129Z,19.80
2018-11-04T08:00:44.576Z,19.87
2018-11-04T08:03:12.991Z,18.67
2018-11-04T08:05:41.429Z,20.00
2018-11-04T08:08:09.744Z,20.27
2018-11-04T08:10:38.182Z,20.63
2018-11-04T08:13:06.578Z,19.80
2018-11-04T08:15:34.893Z,19.53
2018-11-04T08:18:03.372Z,19.63
2018-11-04T08:20:31.725Z,20.80
2018-11-04T08:23:00.070Z,21.03
2018-11-04T08:25:28.424Z,21.20
2018-11-04T08:27:56.823Z,21.97
2018-11-04T08:30:25.221Z,21.73
2018-11-04T08:32:53.859Z,20.73
2018-11-04T08:35:22.239Z,20.77
2018-11-04T08:37:50.675Z,21.53
2018-11-04T08:40:20.305Z,21.80
2018-11-04T08:42:48.783Z,21.23
2018-11-04T08:45:17.377Z,21.60
2018-11-04T08:47:45.921Z,22.07
2018-11-04T08:50:14.347Z,22.63
2018-11-04T08:52:42.782Z,21.87
2018-11-04T08:55:11.412Z,21.07
2018-11-04T08:57:39.723Z,21.40
2018-11-04T09:00:10.776Z,20.93
2018-11-04T09:02:39.421Z,21.97
2018-11-04T09:05:08.249Z,21.93
2018-11-04T09:13:23.164Z,21.33
2018-11-04T09:15:51.574Z,22.23
2018-11-04T09:18:20.014Z,21.80
2018-11-04T09:20:48.440Z,23.57
2018-11-04T09:23:16.790Z,22.50
2018-11-04T09:25:45.189Z,23.17
2018-11-04T09:28:13.634Z,22.57
2018-11-04T09:30:41.928Z,23.07
2018-11-04T09:33:10.287Z,22.23
2018-11-04T09:35:38.778Z,22.00
2018-11-04T09:38:07.215Z,22.10
2018-11-04T09:40:35.549Z,22.93
2018-11-04T09:43:04.116Z,23.07
2018-11-04T09:45:32.476Z,21.10
2018-11-04T09:48:00.747Z,23.33
2018-11-04T09:50:29.185Z,22.47
2018-11-04T09:52:57.488Z,23.17
2018-11-04T09:55:26.180Z,22.07
2018-11-04T09:57:54.543Z,23.00
2018-11-04T10:00:22.872Z,21.57
2018-11-04T10:02:51.314Z,22.73
2018-11-04T10:05:19.843Z,21.97
2018-11-04T10:07:48.332Z,23.87
2018-11-04T10:10:16.776Z,22.23
2018-11-04T10:12:45.375Z,22.37
2018-11-04T10:15:13.945Z,22.33
2018-11-04T10:17:42.543Z,22.53
2018-11-04T10:20:12.446Z,22.50
2018-11-04T10:22:41.148Z,23.13
2018-11-04T10:25:11.064Z,22.90
2018-11-04T10:27:39.901Z,22.90
2018-11-04T10:30:10.403Z,22.30
2018-11-04T10:32:38.920Z,22.77
2018-11-04T10:35:08.061Z,22.53
2018-11-04T10:37:36.665Z,22.93
2018-11-04T10:40:06.113Z,22.80
2018-11-04T10:42:34.462Z,21.87
2018-11-04T10:45:02.872Z,22.83
2018-11-04T10:47:31.253Z,22.17
2018-11-04T10:50:01.382Z,21.37
2018-11-04T10:52:29.898Z,21.03
2018-11-04T10:54:58.240Z,20.23
2018-11-04T10:57:26.740Z,21.33
2018-11-04T10:59:55.131Z,21.20
2018-11-04T11:02:23.439Z,20.27
2018-11-04T11:04:51.794Z,21.00
2018-11-04T11:07:20.262Z,20.33
2018-11-04T11:09:49.105Z,21.20
2018-11-04T11:12:20.569Z,21.53
2018-11-04T11:14:48.876Z,21.40
2018-11-04T11:17:17.216Z,20.70
2018-11-04T11:19:45.578Z,21.70
2018-11-04T11:22:13.925Z,21.63
2018-11-04T11:24:42.196Z,21.50
2018-11-04T11:27:10.636Z,22.20
2018-11-04T11:29:38.952Z,20.87
2018-11-04T11:32:07.729Z,21.10
2018-11-04T11:34:37.245Z,21.33
2018-11-04T11:37:06.028Z,21.37
2018-11-04T11:39:34.347Z,22.53
2018-11-04T11:42:02.687Z,22.10
2018-11-04T11:44:31.258Z,22.23
2018-11-04T11:46:59.912Z,21.53
2018-11-04T11:49:28.293Z,22.03
2018-11-04T11:51:56.599Z,22.80
2018-11-04T11:54:24.939Z,21.83
2018-11-04T11:56:58.873Z,23.00
2018-11-04T11:59:27.396Z,20.37
2018-11-04T12:01:55.873Z,21.90
2018-11-04T12:04:24.280Z,21.97
2018-11-04T12:06:52.616Z,22.53
2018-11-04T12:09:21.123Z,28.33
2018-11-04T12:11:49.520Z,22.90
2018-11-04T12:14:17.893Z,21.60
2018-11-04T12:16:46.308Z,21.40
2018-11-04T12:19:14.953Z,22.03
2018-11-04T12:21:43.457Z,22.57
2018-11-04T12:24:11.807Z,21.77
2018-11-04T12:26:40.254Z,22.17
2018-11-04T12:29:08.924Z,21.77
2018-11-04T12:31:37.279Z,22.90
2018-11-04T12:34:05.850Z,23.07
2018-11-04T12:36:34.312Z,22.87
2018-11-04T12:39:02.795Z,23.00
2018-11-04T12:41:31.101Z,21.63
2018-11-04T12:43:59.479Z,22.20
2018-11-04T12:46:27.835Z,22.30
2018-11-04T12:48:56.170Z,22.97
2018-11-04T12:51:24.504Z,22.13
2018-11-04T12:53:52.896Z,23.57
2018-11-04T12:56:21.276Z,22.70
2018-11-04T12:58:49.620Z,23.60
2018-11-04T13:01:17.937Z,22.77
2018-11-04T13:03:46.269Z,23.70
2018-11-04T13:06:14.903Z,23.40
2018-11-04T13:08:43.220Z,23.87
2018-11-04T13:11:11.600Z,23.10
2018-11-04T13:13:40.172Z,23.40
2018-11-04T13:16:08.602Z,24.33
2018-11-04T13:18:37.077Z,25.00
2018-11-04T13:21:06.182Z,23.47
2018-11-04T13:23:34.741Z,24.27
2018-11-04T13:26:03.062Z,24.00
2018-11-04T13:28:31.385Z,24.10
2018-11-04T13:30:59.755Z,24.60
2018-11-04T13:33:28.100Z,25.13
2018-11-04T13:35:56.453Z,24.37
2018-11-04T13:38:24.948Z,24.57
2018-11-04T13:40:53.288Z,26.50
2018-11-04T13:43:22.398Z,24.90
2018-11-04T13:45:51.247Z,24.55
2018-11-04T13:48:21.734Z,25.87
2018-11-04T13:50:50.064Z,26.90
2018-11-04T13:53:18.399Z,25.60
2018-11-04T13:55:48.267Z,24.85
2018-11-04T13:58:16.635Z,26.10
2018-11-04T14:00:45.506Z,25.92
2018-11-04T14:03:13.893Z,25.83
2018-11-04T14:05:42.790Z,26.25
2018-11-04T14:08:11.316Z,26.23
2018-11-04T14:10:40.237Z,26.27
2018-11-04T14:13:09.159Z,25.30
2018-11-04T14:15:38.293Z,25.72
2018-11-04T14:18:06.637Z,25.83
2018-11-04T14:20:35.561Z,25.05
2018-11-04T14:23:03.873Z,26.10
2018-11-04T14:25:32.807Z,25.90
2018-11-04T14:28:01.794Z,25.75
2018-11-04T14:30:30.256Z,26.17
2018-11-04T14:32:58.588Z,26.10
2018-11-04T14:35:26.928Z,26.20
2018-11-04T14:37:55.286Z,25.40
2018-11-04T14:40:24.217Z,25.88
2018-11-04T14:42:52.567Z,25.48
2018-11-04T14:45:20.916Z,25.67
2018-11-04T14:47:49.241Z,26.57
2018-11-04T14:50:19.185Z,27.00
2018-11-04T14:52:48.126Z,26.13
2018-11-04T14:55:16.642Z,27.50
2018-11-04T14:57:45.667Z,25.70
2018-11-04T15:00:18.635Z,27.57
2018-11-04T15:02:47.006Z,27.47
2018-11-04T15:05:15.372Z,28.27
2018-11-04T15:07:43.749Z,27.37
2018-11-04T15:10:14.290Z,27.60
2018-11-04T15:12:42.637Z,28.10
2018-11-04T15:15:14.807Z,28.60
2018-11-04T15:17:43.132Z,28.90
2018-11-04T15:20:12.187Z,29.10
2018-11-04T15:22:44.561Z,29.13
2018-11-04T15:25:13.441Z,28.73
2018-11-04T15:27:42.594Z,28.67
2018-11-04T15:30:12.527Z,28.40
2018-11-04T15:32:43.494Z,27.57
2018-11-04T15:35:12.801Z,28.70
2018-11-04T15:37:41.116Z,30.23
2018-11-04T15:40:10.938Z,28.87
2018-11-04T15:42:39.402Z,31.63
2018-11-04T15:45:08.932Z,29.43
2018-11-04T15:47:37.534Z,29.67
2018-11-04T15:50:07.462Z,31.93
2018-11-04T15:52:39.428Z,32.83
2018-11-04T15:55:08.234Z,31.33
2018-11-04T15:57:36.946Z,31.47
2018-11-04T16:00:07.236Z,33.23
2018-11-04T16:02:35.624Z,31.67
2018-11-04T16:05:04.357Z,34.33
2018-11-04T16:07:32.690Z,32.63
2018-11-04T16:10:02.325Z,36.20
2018-11-04T16:12:31.288Z,33.50
2018-11-04T16:15:00.087Z,35.03
2018-11-04T16:17:29.424Z,34.63
2018-11-04T16:19:57.848Z,36.53
2018-11-04T16:22:26.661Z,36.73
2018-11-04T16:24:55.315Z,36.10
2018-11-04T16:27:23.784Z,36.13
2018-11-04T16:29:52.162Z,36.43
2018-11-04T16:32:20.467Z,36.67
2018-11-04T16:34:48.797Z,36.17
2018-11-04T16:37:17.265Z,36.17
2018-11-04T16:39:45.657Z,35.17
2018-11-04T16:42:14.154Z,34.10
2018-11-04T16:44:43.455Z,35.43
2018-11-04T16:47:12.324Z,35.13
2018-11-04T16:49:41.131Z,34.80
2018-11-04T16:52:10.644Z,34.63
2018-11-04T16:54:39.233Z,34.03
2018-11-04T16:57:09.658Z,34.27
2018-11-04T16:59:38.630Z,34.10
2018-11-04T17:02:07.290Z,35.73
2018-11-04T17:04:35.968Z,34.60
2018-11-04T17:07:05.046Z,35.67
2018-11-04T17:09:33.400Z,34.97
2018-11-04T17:12:05.203Z,34.47
2018-11-04T17:14:34.003Z,35.33
2018-11-04T17:17:02.326Z,35.03
2018-11-04T17:19:30.650Z,34.73
2018-11-04T17:21:58.997Z,33.27
2018-11-04T17:24:28.310Z,33.70
2018-11-04T17:26:56.615Z,32.03
2018-11-04T17:29:24.954Z,34.50
2018-11-04T17:31:55.655Z,32.70
2018-11-04T17:34:33.545Z,33.03
2018-11-04T17:37:02.203Z,32.13
2018-11-04T17:39:31.261Z,32.60
2018-11-04T17:41:59.732Z,30.90
2018-11-04T17:44:28.063Z,32.80
2018-11-04T17:46:56.949Z,31.17
2018-11-04T17:49:25.275Z,30.73
2018-11-04T17:51:54.717Z,31.03
2018-11-04T17:54:23.070Z,30.23
2018-11-04T17:56:52.597Z,29.83
2018-11-04T17:59:21.780Z,32.00
2018-11-04T18:01:50.966Z,30.70
2018-11-04T18:04:20.050Z,31.13
2018-11-04T18:06:48.678Z,31.83
2018-11-04T18:09:17.403Z,31.10
2018-11-04T18:11:45.747Z,32.07
2018-11-04T18:14:14.259Z,31.67
2018-11-04T18:16:42.558Z,31.33
2018-11-04T18:19:11.346Z,32.33
2018-11-04T18:21:42.765Z,31.17
2018-11-04T18:24:11.825Z,32.50
2018-11-04T18:26:49.615Z,31.93
2018-11-04T18:29:19.823Z,32.10
2018-11-04T18:31:48.241Z,33.17
2018-11-04T18:34:16.697Z,32.40
2018-11-04T18:36:46.684Z,32.43
2018-11-04T18:39:18.971Z,32.53
2018-11-04T18:41:47.407Z,33.67
2018-11-04T18:44:15.865Z,33.13
2018-11-04T18:46:45.016Z,32.53
2018-11-04T18:49:13.668Z,34.83
2018-11-04T18:51:43.487Z,33.67
2018-11-04T18:54:12.934Z,33.63
2018-11-04T18:56:45.096Z,34.17
2018-11-04T18:59:13.702Z,33.77
2018-11-04T19:01:42.508Z,33.27
2018-11-04T19:04:10.922Z,34.37
2018-11-04T19:06:39.315Z,34.17
2018-11-04T19:09:10.160Z,34.30
2018-11-04T19:11:38.645Z,34.43
2018-11-04T19:14:07.734Z,33.03
2018-11-04T19:16:36.183Z,32.83
2018-11-04T19:19:05.042Z,36.50
2018-11-04T19:21:33.463Z,36.23
2018-11-04T19:24:02.113Z,36.87
2018-11-04T19:26:30.801Z,35.70
2018-11-04T19:28:59.368Z,38.13
2018-11-04T19:31:27.983Z,39.77
2018-11-04T19:33:56.443Z,39.23
2018-11-04T19:36:24.807Z,39.00
2018-11-04T19:38:53.218Z,38.17
2018-11-04T19:41:21.842Z,39.17
2018-11-04T19:43:50.255Z,38.53
2018-11-04T19:46:18.656Z,39.10
2018-11-04T19:48:47.264Z,39.00
2018-11-04T19:51:15.780Z,38.57
2018-11-04T19:53:44.085Z,39.00
2018-11-04T19:56:12.507Z,38.97
2018-11-04T19:58:41.066Z,39.03
2018-11-04T20:01:09.933Z,38.90
2018-11-04T20:03:38.286Z,38.50
2018-11-04T20:06:07.137Z,39.40
2018-11-04T20:08:36.086Z,40.10
2018-11-04T20:11:04.638Z,42.17
2018-11-04T20:13:38.387Z,40.17
2018-11-04T20:16:06.901Z,41.87
2018-11-04T20:18:40.656Z,41.30
2018-11-04T20:21:09.195Z,41.10
2018-11-04T20:23:37.602Z,42.83
2018-11-04T20:26:08.316Z,42.40
2018-11-04T20:28:37.035Z,39.73
2018-11-04T20:31:05.978Z,41.37
2018-11-04T20:33:34.472Z,41.70
2018-11-04T20:36:02.981Z,41.10
2018-11-04T20:38:36.704Z,42.40
2018-11-04T20:41:10.720Z,41.40
2018-11-04T20:43:39.096Z,41.47
2018-11-04T20:46:07.526Z,41.17
2018-11-04T20:48:44.289Z,42.33
2018-11-04T20:51:12.940Z,42.43
2018-11-04T20:53:41.432Z,42.93
2018-11-04T20:56:15.132Z,42.33
2018-11-04T20:58:43.670Z,43.60
2018-11-04T21:01:12.138Z,41.67
2018-11-04T21:03:41.876Z,42.93
2018-11-04T21:06:11.021Z,41.63
2018-11-04T21:08:39.629Z,40.83
2018-11-04T21:11:08.139Z,44.17
2018-11-04T21:13:36.468Z,42.60
2018-11-04T21:16:05.351Z,42.60
2018-11-04T21:18:34.003Z,43.07
2018-11-04T21:21:02.393Z,42.23
2018-11-04T21:23:30.881Z,42.00
2018-11-04T21:25:59.253Z,42.37
2018-11-04T21:28:27.713Z,44.43
2018-11-04T21:30:56.100Z,43.07
2018-11-04T21:33:24.435Z,44.77
2018-11-04T21:35:52.789Z,42.63
2018-11-04T21:38:21.483Z,42.27
2018-11-04T21:40:50.065Z,42.30
2018-11-04T21:43:18.526Z,44.33
2018-11-04T21:45:46.920Z,43.17
2018-11-04T21:48:15.581Z,44.73
2018-11-04T21:50:43.951Z,41.73
2018-11-04T21:53:12.297Z,44.40
2018-11-04T21:55:41.107Z,44.43
2018-11-04T21:58:11.641Z,44.53
2018-11-04T22:00:40.082Z,44.90
2018-11-04T22:03:08.497Z,43.60
2018-11-04T22:05:37.024Z,43.13
2018-11-04T22:08:05.474Z,45.47
2018-11-04T22:10:34.151Z,43.17
2018-11-04T22:13:02.687Z,44.57
2018-11-04T22:15:30.996Z,44.70
2018-11-04T22:17:59.360Z,43.87
2018-11-04T22:20:27.686Z,42.17
2018-11-04T22:22:56.063Z,42.80
2018-11-04T22:25:24.416Z,42.67
2018-11-04T22:27:52.873Z,43.27
2018-11-04T22:30:21.267Z,43.33
2018-11-04T22:32:56.011Z,43.30
2018-11-04T22:35:24.405Z,43.20
2018-11-04T22:37:52.725Z,45.03
2018-11-04T22:40:21.062Z,43.73
2018-11-04T22:42:49.422Z,43.10
2018-11-04T22:45:18.354Z,43.43
2018-11-04T22:47:46.708Z,45.10
2018-11-04T22:50:15.900Z,45.80
2018-11-04T22:52:45.589Z,45.20
2018-11-04T22:55:14.760Z,43.43
2018-11-04T22:57:43.969Z,46.00
2018-11-04T23:00:18.055Z,45.73
2018-11-04T23:02:47.990Z,45.20
2018-11-04T23:05:21.765Z,45.10
2018-11-04T23:07:50.232Z,45.70
2018-11-04T23:10:19.053Z,46.43
2018-11-04T23:12:47.589Z,47.73
2018-11-04T23:15:15.967Z,47.60
2018-11-04T23:17:44.462Z,48.40
2018-11-04T23:20:12.782Z,49.13
2018-11-04T23:22:41.092Z,47.40
2018-11-04T23:25:11.355Z,48.90
2018-11-04T23:27:40.164Z,47.13
2018-11-04T23:30:10.350Z,48.63
2018-11-04T23:32:38.650Z,48.03
2018-11-04T23:35:07.554Z,46.37
2018-11-04T23:37:36.005Z,48.87
2018-11-04T23:40:04.486Z,48.30
2018-11-04T23:42:32.811Z,47.40
2018-11-04T23:45:01.144Z,50.93
2018-11-04T23:47:29.538Z,51.00
2018-11-04T23:49:57.899Z,49.10
2018-11-04T23:52:26.231Z,47.57
2018-11-04T23:54:55.934Z,50.33
2018-11-04T23:57:24.269Z,47.37
2018-11-04T23:59:52.629Z,49.23
